Detall de PIREP

Printer-friendly versionPDF version

[2012/12/23 08:30:00]
Flight IATA:CT1004
Pilot Number:012
Company ICAO:CAT
Aircraft Type:F70/A
PAX:58
Aircraft Registration:PFJ
Departing Airport: LEIB
Destination Airport: GCRR
Alternate Airport:GCLP
Online: VATSIM
Route:BAVER UM603 ALT UN851 RESTU UN860 BERUM UG850 DEVLA
Flight Level:F310
No Slew and time accel
No pause
Crash detect
Detect pilot in Cockpit between each 30 and 45 minutes
08:30 Zero fuel Weight: 66106 Lbs, Fuel Weight: 17526 Lbs
08:30 VATSIM:LEIB 230800Z 22007KT 9000 OVC005 14/14 Q1024 NOSIG
08:30 VATSIM:GCRR 230800Z 35003KT 300V050 CAVOK 17/13 Q1021
08:30 VOICE CATALONIAN / X-MAS CHARTER
08:38 Parking Brakes off
08:41 Take-off
08:41 Take off Weight: 83204 Lbs
08:41 Wind: 222º @ 007 Knots Heading: 240º
08:41 POS N38º 52´ 16´´ E001º 22´ 08´´
08:41 Gear Up: 162 Knots
08:41 Flaps:1 at 162 Knots
08:42 Flaps:0 at 188 Knots
08:56 Wind:198º@028 Knots Heading: 232º Ground Speed: 344 Knots Altitude 28175 ft
08:58 TOC
08:58 Fuel Weight: 15129 Lb
09:11 Wind:198º@028 Knots Heading: 205º Ground Speed: 421 Knots Altitude 31318 ft
09:26 Wind:185º@029 Knots Heading: 215º Ground Speed: 423 Knots Altitude 31322 ft
09:41 Wind:259º@026 Knots Heading: 219º Ground Speed: 430 Knots Altitude 31335 ft
09:56 Wind:260º@029 Knots Heading: 231º Ground Speed: 424 Knots Altitude 31345 ft
10:11 Wind:219º@023 Knots Heading: 227º Ground Speed: 428 Knots Altitude 31400 ft
10:26 Wind:219º@024 Knots Heading: 220º Ground Speed: 427 Knots Altitude 31292 ft
10:41 Wind:218º@026 Knots Heading: 248º Ground Speed: 428 Knots Altitude 31259 ft
10:54 TOD
10:54 Fuel Weight: 5525 Lb
10:56 Wind:207º@022 Knots Heading: 247º Ground Speed: 396 Knots Altitude 28113 ft
11:11 Wind:131º@003 Knots Heading: 222º Ground Speed: 238 Knots Altitude 3172 ft
11:13 Flaps:1 at 188 Knots
11:13 Flaps:2 at 198 Knots
11:13 Flaps:3 at 154 Knots
11:13 Gear Down: 151 Knots
11:14 Flaps:4 at 122 Knots
11:17 TouchDown:Rate -139 ft/min Speed: 102 Knots
11:17 VATSIM:GCRR 231100Z 11005KT CAVOK 22/14 Q1022
11:17 Land
11:17 Wind:067º@003 Knots
11:17 Heading: 026º
11:17 Flight Duration: 02:36
11:17 Landing Weight: 70749 Lbs
11:17 POS N28º 56´ 56´´ W013º 36´ 10´´
11:19 Parking brakes on
11:19 Block to Block Duration: 02:41
11:19 Final Fuel: 4574 Lbls
11:19 Spent Fuel: 12951 Lbls
11:19 Flight Length: 1020 NM
11:19 TOD Land Length: 106 NM

Exportar CSV

Powered by Drupal - Modified by Danger4k